Gairloch, United Kingdom
Current Conditions -  °F | °C
As of 3:50 PM on Friday 24 Oct 2014 (Local Time) from EGPO Reporting Station
Rain Showers Rain Showers  
Wind Chill: 52°   Ceiling: 4000
Heat Index: 52°   Visibility: 6mi
Dew Point: 45°   Wind: 18mph
Humidity: 76%   Direction: 220°SW
Pressure: 29.47"   Gusts: NA
Location:  57.7°N, 5.73°W
Report Text: EGPO 241450Z 22016KT 9999 -SHRA SCT018CB SCT020 BKN040 11/07 Q0998
Loading
Personal Weather Stations






























Interactive Weather Map
Tropical Storm Tracking
New forecast layout! Learn more

10-Day Weather Forecast

Advertisements
Track Severe Weather on mobile